Time;durP1;ratioP1;P1;durP2;ratioP2;P2;SDS_P1;SDS_P2;PMS_P1;PMS_P2;Temp;Humidity;BMP_temperature;BMP_pressure;BME280_temperature;BME280_humidity;BME280_pressure;Samples;Min_cycle;Max_cycle;Signal;HPM_P1;HPM_P2
2021/10/29 00:00:25;;;;;;;19.70;16.87;;;7.40;99.90;;;;;;4942460;29;20176;-71
2021/10/29 00:02:52;;;;;;;25.33;19.03;;;7.30;99.90;;;;;;4947036;29;20524;-71
2021/10/29 00:05:18;;;;;;;22.90;18.07;;;7.30;99.90;;;;;;4937245;29;20177;-71
2021/10/29 00:07:43;;;;;;;22.97;18.50;;;7.30;99.90;;;;;;4949551;29;20432;-70
2021/10/29 00:10:09;;;;;;;30.40;21.00;;;7.30;99.90;;;;;;4954407;29;20267;-70
2021/10/29 00:12:34;;;;;;;24.87;20.57;;;7.30;99.90;;;;;;4969027;28;20272;-71
2021/10/29 00:15:00;;;;;;;23.20;20.70;;;7.40;99.90;;;;;;4955741;29;20252;-71
2021/10/29 00:17:25;;;;;;;25.20;21.30;;;7.40;99.90;;;;;;4949515;29;20181;-71
2021/10/29 00:19:51;;;;;;;25.30;20.40;;;7.40;99.90;;;;;;4949298;29;20647;-71
2021/10/29 00:22:17;;;;;;;24.70;21.67;;;7.50;99.90;;;;;;4951038;29;20205;-71
2021/10/29 00:24:43;;;;;;;25.13;21.47;;;7.40;99.90;;;;;;4954861;28;20194;-70
2021/10/29 00:27:08;;;;;;;27.80;22.60;;;7.40;99.90;;;;;;4952210;28;20528;-71
2021/10/29 00:29:34;;;;;;;24.10;20.67;;;7.40;99.90;;;;;;4943112;29;20225;-70
2021/10/29 00:31:59;;;;;;;24.30;21.00;;;7.40;99.90;;;;;;4953698;28;20276;-70
2021/10/29 00:34:25;;;;;;;26.90;21.77;;;7.40;99.90;;;;;;4950072;29;20636;-71
2021/10/29 00:36:51;;;;;;;24.43;19.30;;;7.40;99.90;;;;;;4951461;29;20181;-71
2021/10/29 00:39:16;;;;;;;24.60;21.87;;;7.40;99.90;;;;;;4945596;29;20633;-71
2021/10/29 00:41:43;;;;;;;23.03;19.67;;;7.40;99.90;;;;;;4941988;29;20233;-71
2021/10/29 00:44:09;;;;;;;25.50;20.50;;;7.30;99.90;;;;;;4940047;29;20185;-71
2021/10/29 00:46:35;;;;;;;22.50;18.97;;;7.30;99.90;;;;;;4950802;29;20447;-71
2021/10/29 00:49:00;;;;;;;28.43;20.27;;;7.30;99.90;;;;;;4944325;29;20228;-70
2021/10/29 00:51:26;;;;;;;29.00;21.23;;;7.30;99.90;;;;;;4947562;29;20639;-71
2021/10/29 00:53:52;;;;;;;29.27;21.50;;;7.30;99.90;;;;;;4945891;29;20190;-71
2021/10/29 00:56:18;;;;;;;24.50;21.53;;;7.20;99.90;;;;;;4948099;29;20276;-71
2021/10/29 00:58:45;;;;;;;26.37;22.47;;;7.20;99.90;;;;;;4951348;29;20686;-71
2021/10/29 01:01:11;;;;;;;28.40;21.73;;;7.20;99.90;;;;;;4937170;29;20485;-70
2021/10/29 01:03:42;;;;;;;23.80;21.07;;;7.10;99.90;;;;;;4940732;29;20441;-71
2021/10/29 01:06:08;;;;;;;28.27;22.60;;;7.10;99.90;;;;;;4946806;29;20539;-71
2021/10/29 01:08:37;;;;;;;27.70;22.00;;;7.20;99.90;;;;;;4939672;29;20492;-70
2021/10/29 01:11:04;;;;;;;24.23;20.93;;;7.20;99.90;;;;;;4936328;29;20441;-71
2021/10/29 01:13:31;;;;;;;25.50;22.70;;;7.10;99.90;;;;;;4937072;29;20536;-71
2021/10/29 01:15:57;;;;;;;25.43;21.87;;;7.10;99.90;;;;;;4948056;29;20475;-71
2021/10/29 01:18:23;;;;;;;24.60;20.70;;;7.00;99.90;;;;;;4941771;28;20981;-71
2021/10/29 01:20:48;;;;;;;25.50;20.87;;;7.00;99.90;;;;;;4937155;29;20181;-71
2021/10/29 01:23:14;;;;;;;23.80;19.60;;;7.00;99.90;;;;;;4944774;29;20479;-71
2021/10/29 01:25:40;;;;;;;25.50;21.23;;;6.90;99.90;;;;;;4944412;29;20567;-70
2021/10/29 01:28:12;;;;;;;24.93;21.20;;;7.00;99.90;;;;;;4943279;29;20209;-70
2021/10/29 01:30:39;;;;;;;27.13;20.47;;;6.90;99.90;;;;;;4938521;29;20280;-71
2021/10/29 01:33:05;;;;;;;22.80;20.37;;;6.90;99.90;;;;;;4937295;29;20444;-70
2021/10/29 01:35:31;;;;;;;26.40;22.10;;;6.90;99.90;;;;;;4945769;29;20531;-70
2021/10/29 01:37:58;;;;;;;23.63;19.30;;;6.90;99.90;;;;;;4947372;28;20200;-71
2021/10/29 01:40:24;;;;;;;22.57;18.27;;;6.90;99.90;;;;;;4948390;29;20487;-70
2021/10/29 01:42:49;;;;;;;23.27;19.40;;;6.80;99.90;;;;;;4941821;29;20883;-70
2021/10/29 01:45:16;;;;;;;26.73;21.23;;;6.80;99.90;;;;;;4944072;29;20444;-70
2021/10/29 01:47:42;;;;;;;26.37;22.07;;;6.70;99.90;;;;;;4947101;29;20544;-71
2021/10/29 01:50:09;;;;;;;25.77;19.80;;;6.80;99.90;;;;;;4950890;29;20440;-70
2021/10/29 01:52:35;;;;;;;27.40;20.47;;;6.70;99.90;;;;;;4945715;29;20556;-70
2021/10/29 01:55:02;;;;;;;29.07;19.30;;;6.60;99.90;;;;;;4943368;29;20468;-71
2021/10/29 01:57:27;;;;;;;23.50;18.63;;;6.60;99.90;;;;;;4941245;29;20444;-70
2021/10/29 01:59:53;;;;;;;24.03;18.53;;;6.60;99.90;;;;;;4952488;29;20447;-70
2021/10/29 02:02:18;;;;;;;21.80;18.60;;;6.50;99.90;;;;;;4950454;29;20241;-70
2021/10/29 02:04:44;;;;;;;26.63;19.60;;;6.50;99.90;;;;;;4940225;29;20272;-70
2021/10/29 02:07:10;;;;;;;22.70;19.23;;;6.50;99.90;;;;;;4942488;29;20184;-70
2021/10/29 02:09:35;;;;;;;28.13;19.60;;;6.50;99.90;;;;;;4940598;29;20698;-70
2021/10/29 02:12:01;;;;;;;24.97;20.37;;;6.50;99.90;;;;;;4946045;29;20193;-70
2021/10/29 02:14:27;;;;;;;20.23;17.43;;;6.50;99.90;;;;;;4947882;29;20184;-71
2021/10/29 02:16:52;;;;;;;23.53;17.70;;;6.40;99.90;;;;;;4948737;29;20188;-70
2021/10/29 02:19:18;;;;;;;20.50;16.27;;;6.40;99.90;;;;;;4945850;29;20205;-71
2021/10/29 02:21:43;;;;;;;19.63;17.47;;;6.40;99.90;;;;;;4948196;29;20241;-70
2021/10/29 02:24:09;;;;;;;22.77;17.87;;;6.40;99.90;;;;;;4936124;29;20276;-70
2021/10/29 02:26:35;;;;;;;19.13;16.63;;;6.40;99.90;;;;;;4935795;29;20567;-70
2021/10/29 02:29:01;;;;;;;18.93;16.67;;;6.30;99.90;;;;;;4949223;29;20205;-70
2021/10/29 02:31:26;;;;;;;19.17;17.23;;;6.40;99.90;;;;;;4948143;29;20181;-70
2021/10/29 02:33:54;;;;;;;21.50;16.73;;;6.40;99.90;;;;;;4934751;29;20448;-70
2021/10/29 02:36:19;;;;;;;22.13;16.17;;;6.30;99.90;;;;;;4948825;29;20217;-70
2021/10/29 02:38:46;;;;;;;19.93;16.33;;;6.30;99.90;;;;;;4940078;29;20520;-70
2021/10/29 02:41:12;;;;;;;20.10;17.30;;;6.30;99.90;;;;;;4936819;29;20177;-70
2021/10/29 02:43:37;;;;;;;21.37;17.10;;;6.30;99.90;;;;;;4943369;29;20459;-70
2021/10/29 02:46:03;;;;;;;18.20;15.40;;;6.30;99.90;;;;;;4951108;29;20954;-70
2021/10/29 02:48:28;;;;;;;18.57;16.03;;;6.30;99.90;;;;;;4938913;28;20200;-71
2021/10/29 02:50:54;;;;;;;20.93;16.50;;;6.30;99.90;;;;;;4942093;29;20177;-70
2021/10/29 02:53:19;;;;;;;17.43;15.60;;;6.30;99.90;;;;;;4948023;29;20184;-71
2021/10/29 02:55:45;;;;;;;21.57;15.93;;;6.30;99.90;;;;;;4938483;29;20199;-70
2021/10/29 02:58:11;;;;;;;16.20;14.10;;;6.30;99.90;;;;;;4943912;29;20235;-70
2021/10/29 03:00:36;;;;;;;20.10;15.40;;;6.30;99.90;;;;;;4949494;29;20185;-70
2021/10/29 03:03:02;;;;;;;16.97;15.23;;;6.20;99.90;;;;;;4947386;29;20228;-70
2021/10/29 03:05:27;;;;;;;23.10;18.87;;;6.30;99.90;;;;;;4944737;29;20181;-70
2021/10/29 03:07:53;;;;;;;26.30;21.90;;;6.40;99.90;;;;;;4966246;28;20197;-70
2021/10/29 03:10:19;;;;;;;26.13;20.03;;;6.40;99.90;;;;;;4950894;29;20251;-70
2021/10/29 03:12:44;;;;;;;26.60;19.63;;;6.40;99.90;;;;;;4955417;29;20648;-71
2021/10/29 03:15:11;;;;;;;26.90;23.17;;;6.30;99.90;;;;;;4955412;29;20255;-71
2021/10/29 03:17:37;;;;;;;27.27;22.07;;;6.30;99.90;;;;;;4948103;29;20244;-71
2021/10/29 03:20:05;;;;;;;30.47;24.03;;;6.30;99.90;;;;;;4956512;29;20467;-71
2021/10/29 03:22:31;;;;;;;30.90;24.57;;;6.40;99.90;;;;;;4948931;29;20969;-70
2021/10/29 03:24:56;;;;;;;27.63;24.60;;;6.40;99.90;;;;;;4955191;29;20436;-70
2021/10/29 03:27:22;;;;;;;28.97;23.73;;;6.40;99.90;;;;;;4943873;29;20181;-71
2021/10/29 03:29:48;;;;;;;30.57;23.40;;;6.40;99.90;;;;;;4938833;29;20675;-70
2021/10/29 03:32:14;;;;;;;25.60;20.30;;;6.30;99.90;;;;;;4941472;29;20192;-70
2021/10/29 03:34:40;;;;;;;26.53;21.37;;;6.30;99.90;;;;;;4952991;29;20178;-70
2021/10/29 03:37:13;;;;;;;27.70;22.50;;;6.10;99.90;;;;;;4950735;29;20452;-70
2021/10/29 03:39:48;;;;;;;29.97;22.03;;;6.10;99.90;;;;;;4937500;29;20205;-70
2021/10/29 03:42:20;;;;;;;25.93;21.20;;;6.10;99.90;;;;;;4938995;29;20456;-70
2021/10/29 03:44:53;;;;;;;27.67;21.27;;;6.10;99.90;;;;;;4943402;29;20953;-70
2021/10/29 03:47:19;;;;;;;24.70;20.47;;;6.00;99.90;;;;;;4953384;29;20859;-70
2021/10/29 03:49:51;;;;;;;23.87;20.63;;;6.00;99.90;;;;;;4952490;29;20515;-70
2021/10/29 03:52:34;;;;;;;28.20;20.20;;;6.00;99.90;;;;;;4947575;29;20945;-70
2021/10/29 03:55:06;;;;;;;22.80;20.27;;;6.00;99.90;;;;;;4956262;28;20443;-71
2021/10/29 03:57:32;;;;;;;28.10;21.67;;;6.10;99.90;;;;;;4944522;29;20445;-70
2021/10/29 03:59:57;;;;;;;25.90;21.07;;;6.10;99.90;;;;;;4939613;29;20437;-70
2021/10/29 04:02:23;;;;;;;27.17;22.03;;;6.10;99.90;;;;;;4944565;28;20204;-70
2021/10/29 04:04:50;;;;;;;23.27;19.83;;;6.10;99.90;;;;;;4939164;29;20182;-70
2021/10/29 04:07:15;;;;;;;31.00;22.83;;;6.10;99.90;;;;;;4946373;29;21037;-70
2021/10/29 04:09:44;;;;;;;29.53;24.60;;;6.10;99.90;;;;;;4953900;29;20555;-70
2021/10/29 04:12:12;;;;;;;29.73;23.20;;;6.20;99.90;;;;;;4954005;29;20651;-71
2021/10/29 04:14:38;;;;;;;25.47;21.50;;;6.10;99.90;;;;;;4937066;29;20459;-70
2021/10/29 04:17:04;;;;;;;28.13;22.83;;;6.10;99.90;;;;;;4951613;29;21024;-70
2021/10/29 04:19:30;;;;;;;28.33;21.37;;;6.10;99.90;;;;;;4943813;29;20472;-72
2021/10/29 04:21:59;;;;;;;28.13;23.33;;;6.10;99.90;;;;;;4938478;29;20461;-70
2021/10/29 04:24:25;;;;;;;26.70;21.20;;;6.10;99.90;;;;;;4943153;29;20440;-69
2021/10/29 04:26:51;;;;;;;28.43;22.57;;;6.10;99.90;;;;;;4955378;29;20428;-69
2021/10/29 04:29:18;;;;;;;31.93;22.37;;;6.00;99.90;;;;;;4944885;29;21042;-69
2021/10/29 04:31:49;;;;;;;32.50;22.90;;;6.00;99.90;;;;;;4946176;29;20173;-69
2021/10/29 04:34:20;;;;;;;30.90;24.13;;;6.00;99.90;;;;;;4948517;29;20441;-69
2021/10/29 04:36:47;;;;;;;28.37;22.87;;;6.00;99.90;;;;;;4951743;29;20445;-69
2021/10/29 04:39:14;;;;;;;28.17;22.10;;;6.00;99.90;;;;;;4937575;29;20464;-69
2021/10/29 04:41:44;;;;;;;26.80;21.03;;;6.00;99.90;;;;;;4954815;29;21081;-69
2021/10/29 04:44:10;;;;;;;24.60;20.10;;;6.00;99.90;;;;;;4941604;29;20432;-69
2021/10/29 04:46:36;;;;;;;24.43;19.70;;;5.80;99.90;;;;;;4953777;28;20439;-69
2021/10/29 04:49:03;;;;;;;22.60;19.77;;;5.80;99.90;;;;;;4944087;29;20897;-69
2021/10/29 04:51:29;;;;;;;27.67;19.67;;;5.80;99.90;;;;;;4947191;29;20445;-69
2021/10/29 04:53:55;;;;;;;24.83;19.30;;;5.80;99.90;;;;;;4951643;29;20451;-69
2021/10/29 04:56:22;;;;;;;23.43;20.13;;;5.70;99.90;;;;;;4936275;29;20437;-69
2021/10/29 04:58:48;;;;;;;24.17;20.80;;;5.70;99.90;;;;;;4950041;29;20209;-69
2021/10/29 05:01:14;;;;;;;24.83;19.77;;;5.70;99.90;;;;;;4948664;29;20538;-69
2021/10/29 05:03:40;;;;;;;21.00;17.77;;;5.70;99.90;;;;;;4943362;29;20776;-69
2021/10/29 05:06:06;;;;;;;26.20;20.53;;;5.70;99.90;;;;;;4952294;29;20200;-69
2021/10/29 05:08:31;;;;;;;24.23;19.40;;;5.60;99.90;;;;;;4935567;29;20734;-69
2021/10/29 05:10:57;;;;;;;22.20;18.27;;;5.60;99.90;;;;;;4947581;29;20718;-69
2021/10/29 05:13:23;;;;;;;22.70;19.63;;;5.60;99.90;;;;;;4946910;29;20558;-69
2021/10/29 05:15:48;;;;;;;23.47;18.17;;;5.60;99.90;;;;;;4943227;29;20247;-69
2021/10/29 05:18:16;;;;;;;29.93;21.57;;;5.60;99.90;;;;;;4945169;29;21105;-69
2021/10/29 05:20:45;;;;;;;23.93;18.47;;;5.70;99.90;;;;;;4944422;29;20468;-69
2021/10/29 05:23:11;;;;;;;24.57;18.80;;;5.70;99.90;;;;;;4954431;29;20872;-69
2021/10/29 05:25:37;;;;;;;24.07;18.50;;;5.70;99.90;;;;;;4954569;29;20432;-69
2021/10/29 05:28:03;;;;;;;22.27;19.07;;;5.70;99.90;;;;;;4954064;29;20448;-69
2021/10/29 05:30:29;;;;;;;20.33;18.13;;;5.70;99.90;;;;;;4954461;29;20181;-69
2021/10/29 05:32:54;;;;;;;23.73;20.23;;;5.70;99.90;;;;;;4954258;29;20444;-69
2021/10/29 05:35:20;;;;;;;27.10;21.23;;;5.70;99.90;;;;;;4954487;29;20185;-69
2021/10/29 05:37:46;;;;;;;25.83;18.60;;;5.70;99.90;;;;;;4953929;29;20370;-69
2021/10/29 05:40:12;;;;;;;22.97;19.80;;;5.60;99.90;;;;;;4954235;29;20192;-69
2021/10/29 05:42:38;;;;;;;25.07;19.03;;;5.60;99.90;;;;;;4953258;29;20556;-69
2021/10/29 05:45:06;;;;;;;25.80;19.20;;;5.60;99.90;;;;;;4954162;29;20866;-69
2021/10/29 05:47:32;;;;;;;25.20;19.70;;;5.60;99.90;;;;;;4953900;29;20436;-69
2021/10/29 05:49:59;;;;;;;24.27;20.10;;;5.60;99.90;;;;;;4954030;29;20425;-69
2021/10/29 05:52:27;;;;;;;27.47;21.47;;;5.60;99.90;;;;;;4953707;29;20268;-69
2021/10/29 05:57:23;;;;;;;23.83;19.07;;;5.50;99.90;;;;;;4954108;29;20472;-69
2021/10/29 05:59:50;;;;;;;24.47;18.23;;;5.50;99.90;;;;;;4953339;29;20457;-69
2021/10/29 06:02:16;;;;;;;28.53;19.23;;;5.40;99.90;;;;;;4953545;29;20464;-69
2021/10/29 06:04:41;;;;;;;23.13;19.60;;;5.40;99.90;;;;;;4954133;29;20428;-69
2021/10/29 06:07:07;;;;;;;22.77;19.77;;;5.40;99.90;;;;;;4953302;29;20173;-69
2021/10/29 06:09:32;;;;;;;22.50;18.27;;;5.40;99.90;;;;;;4953213;28;20314;-69
2021/10/29 06:11:58;;;;;;;22.03;17.27;;;5.30;99.90;;;;;;4953678;28;20181;-69
2021/10/29 06:14:26;;;;;;;22.67;18.50;;;5.30;99.90;;;;;;4953826;29;20200;-69
2021/10/29 06:16:51;;;;;;;26.33;18.93;;;5.30;99.90;;;;;;4953658;29;20176;-70
2021/10/29 06:19:17;;;;;;;28.40;21.33;;;5.20;99.90;;;;;;4952939;29;20476;-70
2021/10/29 06:21:54;;;;;;;21.30;18.07;;;5.20;99.90;;;;;;4953258;28;20456;-71
2021/10/29 06:24:20;;;;;;;25.17;18.27;;;5.20;99.90;;;;;;4952744;29;20223;-70
2021/10/29 06:29:11;;;;;;;34.30;23.50;;;5.20;99.90;;;;;;4923642;28;20303;-69
2021/10/29 06:31:37;;;;;;;22.47;16.30;;;5.30;99.90;;;;;;4936734;28;20618;-69
2021/10/29 06:34:03;;;;;;;25.07;19.40;;;5.30;99.90;;;;;;4950256;29;20256;-69
2021/10/29 06:36:28;;;;;;;26.60;18.30;;;5.40;99.90;;;;;;4949422;29;20440;-69
2021/10/29 06:38:57;;;;;;;26.03;20.47;;;5.30;99.90;;;;;;4946082;28;20212;-69
2021/10/29 06:41:22;;;;;;;25.83;18.70;;;5.20;99.90;;;;;;4953819;28;20181;-68
2021/10/29 06:59:59;;;;;;;21.13;18.20;;;6.40;99.90;;;;;;4950367;28;20431;-69
2021/10/29 07:05:08;;;;;;;22.33;18.07;;;7.00;99.90;;;;;;4949710;29;20454;-63
2021/10/29 07:40:18;;;;;;;17.73;15.50;;;11.60;99.90;;;;;;4953035;29;20451;-71
2021/10/29 07:42:55;;;;;;;20.97;16.07;;;12.00;99.90;;;;;;4953936;28;20539;-71
2021/10/29 07:45:22;;;;;;;25.50;20.57;;;12.20;99.90;;;;;;4964297;28;20440;-71
2021/10/29 07:47:48;;;;;;;38.00;20.27;;;12.60;99.90;;;;;;4949647;29;20452;-67
2021/10/29 07:50:15;;;;;;;22.10;17.93;;;13.10;99.90;;;;;;4957306;28;20773;-67
2021/10/29 07:52:42;;;;;;;22.00;17.70;;;13.80;99.90;;;;;;4954208;28;20439;-68
2021/10/29 07:55:10;;;;;;;23.33;18.87;;;14.30;99.90;;;;;;4953617;28;20602;-67
2021/10/29 07:57:36;;;;;;;20.90;18.67;;;14.90;99.90;;;;;;4949315;28;20777;-67
2021/10/29 08:00:06;;;;;;;20.93;18.47;;;15.50;99.90;;;;;;4952962;28;20444;-67
2021/10/29 08:02:32;;;;;;;18.33;16.37;;;16.10;99.90;;;;;;4953972;28;20472;-67
2021/10/29 08:04:58;;;;;;;16.80;15.03;;;16.80;99.90;;;;;;4952968;29;20440;-69
2021/10/29 08:07:23;;;;;;;16.97;15.47;;;16.90;99.90;;;;;;4949498;28;20275;-69
2021/10/29 08:09:49;;;;;;;20.93;17.07;;;17.40;99.90;;;;;;4952795;28;20247;-69
2021/10/29 08:12:16;;;;;;;18.37;16.00;;;17.60;99.90;;;;;;4948413;29;20189;-69
2021/10/29 08:14:43;;;;;;;17.27;15.30;;;17.90;99.90;;;;;;4962902;28;20192;-68
2021/10/29 08:17:08;;;;;;;17.30;15.57;;;17.30;99.90;;;;;;4944657;28;20451;-69
2021/10/29 08:19:34;;;;;;;17.87;16.20;;;16.20;99.90;;;;;;4947146;28;20472;-69
2021/10/29 08:22:01;;;;;;;15.63;14.27;;;15.60;99.90;;;;;;4948436;28;20201;-70
2021/10/29 08:24:27;;;;;;;18.13;15.73;;;15.50;99.90;;;;;;4946774;28;20268;-67
2021/10/29 08:26:54;;;;;;;16.80;15.20;;;14.80;99.90;;;;;;4946452;28;20436;-67
2021/10/29 08:29:20;;;;;;;16.50;14.80;;;14.40;99.90;;;;;;4943996;28;20457;-68
2021/10/29 08:31:47;;;;;;;16.27;14.70;;;14.00;99.90;;;;;;4947357;28;20495;-67
2021/10/29 08:34:13;;;;;;;15.43;13.87;;;14.20;99.90;;;;;;4947301;28;20476;-67
2021/10/29 08:36:40;;;;;;;15.77;14.40;;;14.30;99.90;;;;;;4946654;28;20448;-67
2021/10/29 08:39:07;;;;;;;17.10;15.37;;;13.30;99.90;;;;;;4942123;28;21238;-68
2021/10/29 08:41:39;;;;;;;15.97;14.27;;;12.90;99.90;;;;;;4946720;29;20440;-67
2021/10/29 08:44:05;;;;;;;17.87;14.70;;;12.60;99.90;;;;;;4946973;28;20432;-67
2021/10/29 08:46:32;;;;;;;17.40;15.73;;;12.40;99.90;;;;;;4944920;28;20440;-68
2021/10/29 08:48:58;;;;;;;16.80;15.10;;;12.70;99.90;;;;;;4939578;28;20464;-67
2021/10/29 08:51:25;;;;;;;15.57;14.07;;;13.20;99.90;;;;;;4947395;28;20447;-68
2021/10/29 08:53:52;;;;;;;18.53;16.43;;;13.80;99.90;;;;;;4946497;28;20482;-68
2021/10/29 08:56:18;;;;;;;17.10;15.30;;;15.40;99.90;;;;;;4947074;28;20531;-68
2021/10/29 08:59:03;;;;;;;18.10;16.20;;;16.50;99.90;;;;;;4940040;28;20486;-69
2021/10/29 09:01:37;;;;;;;17.30;15.50;;;16.50;99.90;;;;;;4946708;28;20193;-68
2021/10/29 09:04:05;;;;;;;16.93;15.20;;;16.90;99.90;;;;;;4946190;28;20519;-68
2021/10/29 09:06:51;;;;;;;17.00;14.83;;;16.50;99.90;;;;;;4947083;28;20444;-68
2021/10/29 09:16:13;;;;;;;16.33;14.40;;;16.80;99.90;;;;;;4946344;28;20866;-68
2021/10/29 09:17:41;;;;;;;18.53;16.63;;;18.20;99.90;;;;;;4942045;28;20436;-69
2021/10/29 09:31:23;;;;;;;15.13;13.53;;;19.30;99.90;;;;;;4946094;28;20470;-68
2021/10/29 09:31:24;;;;;;;15.37;13.87;;;19.30;99.90;;;;;;4952789;28;20479;-68
2021/10/29 09:34:00;;;;;;;17.73;15.47;;;19.70;99.90;;;;;;4957448;28;20861;-69
2021/10/29 09:36:52;;;;;;;15.03;13.60;;;20.20;99.70;;;;;;4952371;28;20443;-69
2021/10/29 09:39:23;;;;;;;15.20;13.60;;;20.30;99.00;;;;;;4946804;28;20471;-68
2021/10/29 09:42:08;;;;;;;14.60;12.87;;;20.90;98.40;;;;;;4951122;29;20470;-69
2021/10/29 09:44:46;;;;;;;18.13;13.20;;;21.80;97.20;;;;;;4951223;28;20985;-68
2021/10/29 09:47:15;;;;;;;15.37;13.67;;;22.80;95.20;;;;;;4948055;28;20440;-69
2021/10/29 09:52:35;;;;;;;12.93;11.73;;;23.60;92.50;;;;;;4954118;28;20471;-67
2021/10/29 09:57:30;;;;;;;12.87;11.37;;;23.90;90.30;;;;;;4945315;28;20444;-66
2021/10/29 09:59:57;;;;;;;12.20;10.70;;;22.80;90.10;;;;;;4949991;28;20444;-66
2021/10/29 10:02:25;;;;;;;11.47;10.30;;;22.10;91.50;;;;;;4950617;28;20464;-66
2021/10/29 10:04:56;;;;;;;11.60;10.50;;;22.60;91.10;;;;;;4950279;28;20829;-66
2021/10/29 10:07:23;;;;;;;10.27;9.37;;;23.10;90.10;;;;;;4945603;29;20443;-66
2021/10/29 10:09:51;;;;;;;10.17;9.37;;;25.10;83.90;;;;;;4954331;28;20459;-66
2021/10/29 10:12:20;;;;;;;9.53;8.67;;;24.20;79.90;;;;;;4950561;28;20494;-66
2021/10/29 10:14:46;;;;;;;10.53;9.63;;;23.60;82.80;;;;;;4951337;28;20455;-67
2021/10/29 10:17:15;;;;;;;10.03;8.67;;;24.90;80.20;;;;;;4947549;28;20447;-67
2021/10/29 10:19:41;;;;;;;10.13;9.20;;;24.60;79.20;;;;;;4948549;28;20467;-67
2021/10/29 10:22:11;;;;;;;10.43;9.50;;;23.60;80.30;;;;;;4950495;28;20472;-66
2021/10/29 10:24:38;;;;;;;9.60;8.70;;;22.10;83.00;;;;;;4950178;28;20452;-74
2021/10/29 10:48:37;;;;;;;9.67;8.40;;;30.40;54.20;;;;;;4943892;28;20456;-73
2021/10/29 10:51:35;;;;;;;10.83;9.00;;;28.60;55.30;;;;;;4949613;28;20458;-73
2021/10/29 10:54:43;;;;;;;10.30;9.47;;;27.80;56.30;;;;;;4947771;28;20440;-72
2021/10/29 11:10:55;;;;;;;11.90;7.70;;;29.30;54.30;;;;;;4952823;28;20439;-67
2021/10/29 11:13:21;;;;;;;10.10;8.90;;;28.70;53.40;;;;;;4955034;28;20432;-68
2021/10/29 11:16:05;;;;;;;8.90;8.10;;;26.90;55.50;;;;;;4955385;28;20450;-69
2021/10/29 11:18:34;;;;;;;8.83;8.07;;;27.70;55.60;;;;;;4947928;29;20227;-68
2021/10/29 11:21:19;;;;;;;8.40;7.80;;;29.90;53.30;;;;;;4954075;28;20451;-69
2021/10/29 11:23:53;;;;;;;7.97;7.17;;;30.60;51.70;;;;;;4953376;28;20472;-70
2021/10/29 11:26:25;;;;;;;9.03;8.10;;;29.70;50.30;;;;;;4953369;28;21021;-68
2021/10/29 11:28:52;;;;;;;8.73;7.83;;;29.30;51.80;;;;;;4947320;28;20460;-67
2021/10/29 11:31:25;;;;;;;8.60;7.90;;;30.50;51.00;;;;;;4953145;28;20451;-68
2021/10/29 11:33:53;;;;;;;9.37;7.87;;;32.20;49.30;;;;;;4953499;28;20436;-68
2021/10/29 11:36:22;;;;;;;8.97;8.27;;;33.90;47.50;;;;;;4951021;29;20821;-69
2021/10/29 11:38:51;;;;;;;9.27;8.47;;;35.20;44.90;;;;;;4948311;28;20452;-70
2021/10/29 11:41:22;;;;;;;8.90;8.20;;;36.00;42.60;;;;;;4959681;28;20455;-71
2021/10/29 11:43:49;;;;;;;8.10;7.50;;;36.30;41.40;;;;;;4952670;28;20472;-68
2021/10/29 11:46:16;;;;;;;7.50;6.80;;;35.80;40.00;;;;;;4952673;28;20428;-69
2021/10/29 11:48:50;;;;;;;7.90;7.30;;;34.20;42.00;;;;;;4948312;28;20483;-70
2021/10/29 11:51:17;;;;;;;10.50;7.13;;;35.20;40.90;;;;;;4953015;28;20515;-67
2021/10/29 11:53:52;;;;;;;7.60;6.90;;;35.70;39.90;;;;;;4956050;28;20450;-71
2021/10/29 12:07:21;;;;;;;8.60;7.80;;;36.20;37.50;;;;;;4949074;29;20459;-70
2021/10/29 12:09:52;;;;;;;9.80;8.90;;;35.20;37.60;;;;;;4950850;28;20451;-69
2021/10/29 12:12:21;;;;;;;8.60;7.90;;;34.10;38.60;;;;;;4957161;28;20818;-70
2021/10/29 12:14:50;;;;;;;6.83;6.33;;;33.60;39.70;;;;;;4952374;28;20433;-69
2021/10/29 12:17:22;;;;;;;8.27;7.40;;;34.90;38.20;;;;;;4954038;28;20444;-71
2021/10/29 12:19:54;;;;;;;7.37;6.83;;;35.20;37.70;;;;;;4950947;28;20459;-70
2021/10/29 12:24:53;;;;;;;8.70;7.90;;;35.90;36.00;;;;;;4952118;28;20448;-70
2021/10/29 12:27:29;;;;;;;7.40;6.77;;;33.60;38.70;;;;;;4948126;28;20441;-70
2021/10/29 12:33:28;;;;;;;7.33;6.73;;;32.00;38.40;;;;;;4948462;29;20448;-69
2021/10/29 13:04:05;;;;;;;8.17;7.40;;;31.40;38.70;;;;;;4946859;28;20471;-71
2021/10/29 13:06:34;;;;;;;7.90;7.30;;;30.90;40.70;;;;;;4946573;28;20428;-70
2021/10/29 13:09:01;;;;;;;8.60;8.00;;;33.20;38.70;;;;;;4941718;28;20520;-70
2021/10/29 13:11:32;;;;;;;8.30;7.60;;;34.90;36.70;;;;;;4946530;28;20475;-71
2021/10/29 13:14:01;;;;;;;8.40;7.80;;;36.10;35.90;;;;;;4946265;28;20985;-69
2021/10/29 13:16:27;;;;;;;9.77;7.90;;;36.40;35.40;;;;;;4946131;28;20522;-71
2021/10/29 13:22:19;;;;;;;8.00;7.30;;;36.70;34.80;;;;;;4946232;28;20958;-70
2021/10/29 13:27:20;;;;;;;7.37;6.77;;;37.70;33.80;;;;;;4944777;28;20468;-73
2021/10/29 13:51:41;;;;;;;9.07;8.17;;;27.20;42.70;;;;;;4945673;29;20427;-67
2021/10/29 13:56:55;;;;;;;9.20;7.47;;;24.80;46.00;;;;;;4946127;28;20440;-67
2021/10/29 14:02:25;;;;;;;7.57;6.87;;;22.60;48.90;;;;;;4946646;28;20974;-68
2021/10/29 14:29:35;;;;;;;9.40;8.50;;;18.20;65.10;;;;;;4946239;29;20918;-67
2021/10/29 14:32:14;;;;;;;10.50;9.60;;;17.90;66.20;;;;;;4950667;28;20423;-67
2021/10/29 14:34:48;;;;;;;9.37;7.90;;;17.70;68.50;;;;;;4950477;28;20424;-67
2021/10/29 14:42:54;;;;;;;17.43;15.73;;;17.60;73.60;;;;;;4950887;28;20502;-67
2021/10/29 14:45:22;;;;;;;17.20;15.50;;;17.70;74.50;;;;;;4948350;28;20809;-67
2021/10/29 14:48:11;;;;;;;15.17;13.60;;;17.70;75.50;;;;;;4948897;28;20456;-67
2021/10/29 15:43:34;;;;;;;11.40;10.30;;;16.20;94.80;;;;;;4953060;29;20574;-67
2021/10/29 15:51:34;;;;;;;10.60;9.60;;;15.70;93.70;;;;;;4926791;29;20441;-67
2021/10/29 15:54:02;;;;;;;11.40;10.40;;;15.60;94.10;;;;;;4934434;29;20429;-67
2021/10/29 16:17:48;;;;;;;16.40;14.63;;;15.20;97.50;;;;;;4953537;29;20507;-69
2021/10/29 16:20:14;;;;;;;11.30;10.20;;;14.90;98.10;;;;;;4956255;28;20420;-67
2021/10/29 16:22:40;;;;;;;10.70;9.67;;;14.80;99.20;;;;;;4956587;28;20463;-67
2021/10/29 16:25:12;;;;;;;10.87;9.97;;;14.60;99.90;;;;;;4956113;28;20929;-68
2021/10/29 16:30:11;;;;;;;11.17;10.17;;;14.30;99.90;;;;;;4956103;28;20417;-68
2021/10/29 16:35:39;;;;;;;13.27;11.93;;;14.10;99.90;;;;;;4915487;29;20477;-68
2021/10/29 16:38:09;;;;;;;11.17;10.07;;;13.80;99.90;;;;;;4947244;28;20464;-68
2021/10/29 16:40:36;;;;;;;13.07;11.70;;;13.70;99.90;;;;;;4955832;28;20424;-66
2021/10/29 16:43:02;;;;;;;14.80;11.80;;;13.70;99.90;;;;;;4955782;29;20603;-65
2021/10/29 16:45:28;;;;;;;12.83;11.53;;;13.60;99.90;;;;;;4955876;28;20428;-66
2021/10/29 16:47:54;;;;;;;14.73;13.33;;;13.50;99.90;;;;;;4955417;28;20444;-67
2021/10/29 16:50:21;;;;;;;13.23;11.87;;;13.50;99.90;;;;;;4955689;28;20805;-68
2021/10/29 16:52:48;;;;;;;14.67;12.03;;;13.30;99.90;;;;;;4955684;28;20421;-67
2021/10/29 16:55:14;;;;;;;13.60;12.20;;;13.30;99.90;;;;;;4955584;28;20448;-67
2021/10/29 16:57:40;;;;;;;13.37;12.07;;;13.30;99.90;;;;;;4955164;28;20471;-66
2021/10/29 17:00:09;;;;;;;14.33;12.23;;;13.20;99.90;;;;;;4955499;28;20459;-68
2021/10/29 17:02:35;;;;;;;15.03;11.87;;;13.20;99.90;;;;;;4955522;28;20853;-73
2021/10/29 17:05:00;;;;;;;13.67;12.20;;;13.10;99.90;;;;;;4955445;28;20421;-66
2021/10/29 17:07:26;;;;;;;14.57;13.17;;;13.10;99.90;;;;;;4955094;28;20228;-67
2021/10/29 17:09:52;;;;;;;13.27;11.87;;;13.00;99.90;;;;;;4954462;28;20244;-68
2021/10/29 17:12:20;;;;;;;13.27;12.00;;;13.10;99.90;;;;;;4955184;28;20173;-71
2021/10/29 17:14:46;;;;;;;12.07;10.80;;;13.00;99.90;;;;;;4955323;28;20946;-69
2021/10/29 17:17:11;;;;;;;13.17;10.10;;;13.10;99.90;;;;;;4955169;28;20424;-69
2021/10/29 17:19:37;;;;;;;11.33;10.23;;;13.10;99.90;;;;;;4954861;28;20215;-68
2021/10/29 17:22:02;;;;;;;12.77;11.57;;;13.10;99.90;;;;;;4955063;28;20205;-68
2021/10/29 17:24:28;;;;;;;12.37;10.60;;;13.10;99.90;;;;;;4955112;28;20523;-68
2021/10/29 17:26:55;;;;;;;14.57;12.17;;;13.00;99.90;;;;;;4955162;28;20299;-71
2021/10/29 17:29:21;;;;;;;14.13;12.00;;;12.90;99.90;;;;;;4954752;28;20189;-66
2021/10/29 17:31:47;;;;;;;13.50;12.20;;;12.90;99.90;;;;;;4954967;28;20943;-67
2021/10/29 17:34:12;;;;;;;13.10;11.80;;;12.80;99.90;;;;;;4954911;28;20451;-66
2021/10/29 17:36:38;;;;;;;13.37;10.90;;;12.70;99.90;;;;;;4954893;28;20417;-66
2021/10/29 17:39:05;;;;;;;11.97;10.77;;;12.60;99.90;;;;;;4954461;28;20702;-69
2021/10/29 17:41:30;;;;;;;14.20;11.40;;;12.50;99.90;;;;;;4960000;28;20173;-67
2021/10/29 17:43:56;;;;;;;12.13;11.00;;;12.40;99.90;;;;;;4973757;28;20915;-66